sensor_id;sensor_type;location;lat;lon;timestamp;pressure;altitude;pressure_sealevel;temperature;humidity
64841;BME280;51307;52.162;7.560;2023-04-25T00:01:59;100316.00;;;7.31;64.79
64841;BME280;51307;52.162;7.560;2023-04-25T00:04:25;100319.97;;;7.27;65.67
64841;BME280;51307;52.162;7.560;2023-04-25T00:06:53;100319.88;;;7.19;65.60
64841;BME280;51307;52.162;7.560;2023-04-25T00:09:19;100333.00;;;7.02;65.55
64841;BME280;51307;52.162;7.560;2023-04-25T00:11:44;100329.25;;;7.41;64.89
64841;BME280;51307;52.162;7.560;2023-04-25T00:14:10;100329.34;;;7.03;66.55
64841;BME280;51307;52.162;7.560;2023-04-25T00:16:35;100330.94;;;6.96;66.71
64841;BME280;51307;52.162;7.560;2023-04-25T00:19:01;100337.81;;;7.17;66.54
64841;BME280;51307;52.162;7.560;2023-04-25T00:21:28;100337.78;;;6.99;67.28
64841;BME280;51307;52.162;7.560;2023-04-25T00:23:55;100334.88;;;7.20;66.66
64841;BME280;51307;52.162;7.560;2023-04-25T00:26:20;100338.81;;;7.16;66.59
64841;BME280;51307;52.162;7.560;2023-04-25T00:28:47;100343.13;;;7.17;67.04
64841;BME280;51307;52.162;7.560;2023-04-25T00:31:13;100339.38;;;7.37;66.34
64841;BME280;51307;52.162;7.560;2023-04-25T00:33:38;100339.78;;;7.15;67.05
64841;BME280;51307;52.162;7.560;2023-04-25T00:36:04;100345.53;;;7.10;67.15
64841;BME280;51307;52.162;7.560;2023-04-25T00:38:30;100345.28;;;7.31;66.69
64841;BME280;51307;52.162;7.560;2023-04-25T00:40:56;100345.59;;;7.28;66.86
64841;BME280;51307;52.162;7.560;2023-04-25T00:43:25;100349.47;;;7.34;66.30
64841;BME280;51307;52.162;7.560;2023-04-25T00:45:52;100344.97;;;7.34;66.36
64841;BME280;51307;52.162;7.560;2023-04-25T00:48:19;100343.09;;;7.45;66.14
64841;BME280;51307;52.162;7.560;2023-04-25T00:50:54;100354.69;;;7.53;66.05
64841;BME280;51307;52.162;7.560;2023-04-25T00:53:21;100348.09;;;7.48;66.33
64841;BME280;51307;52.162;7.560;2023-04-25T00:55:47;100349.28;;;7.63;65.73
64841;BME280;51307;52.162;7.560;2023-04-25T00:58:13;100360.06;;;7.62;65.99
64841;BME280;51307;52.162;7.560;2023-04-25T01:00:40;100360.13;;;7.52;65.73
64841;BME280;51307;52.162;7.560;2023-04-25T01:03:06;100355.72;;;7.61;66.00
64841;BME280;51307;52.162;7.560;2023-04-25T01:05:32;100353.69;;;7.08;66.84
64841;BME280;51307;52.162;7.560;2023-04-25T01:07:58;100358.16;;;7.72;65.14
64841;BME280;51307;52.162;7.560;2023-04-25T01:10:24;100351.78;;;7.47;65.45
64841;BME280;51307;52.162;7.560;2023-04-25T01:12:49;100358.09;;;7.18;66.31
64841;BME280;51307;52.162;7.560;2023-04-25T01:15:15;100362.53;;;6.99;65.77
64841;BME280;51307;52.162;7.560;2023-04-25T01:17:41;100359.88;;;6.99;65.39
64841;BME280;51307;52.162;7.560;2023-04-25T01:20:11;100364.16;;;7.10;65.54
64841;BME280;51307;52.162;7.560;2023-04-25T01:22:36;100359.47;;;7.22;65.31
64841;BME280;51307;52.162;7.560;2023-04-25T01:25:02;100372.66;;;6.86;65.03
64841;BME280;51307;52.162;7.560;2023-04-25T01:27:28;100369.72;;;7.17;64.75
64841;BME280;51307;52.162;7.560;2023-04-25T01:29:55;100371.75;;;7.33;64.09
64841;BME280;51307;52.162;7.560;2023-04-25T01:32:22;100367.19;;;7.25;64.19
64841;BME280;51307;52.162;7.560;2023-04-25T01:34:49;100371.81;;;6.95;64.43
64841;BME280;51307;52.162;7.560;2023-04-25T01:37:14;100376.31;;;6.85;64.46
64841;BME280;51307;52.162;7.560;2023-04-25T01:39:40;100372.78;;;6.84;64.57
64841;BME280;51307;52.162;7.560;2023-04-25T01:42:09;100375.66;;;7.11;63.56
64841;BME280;51307;52.162;7.560;2023-04-25T01:44:34;100386.47;;;6.99;63.02
64841;BME280;51307;52.162;7.560;2023-04-25T01:46:59;100382.13;;;7.08;63.73
64841;BME280;51307;52.162;7.560;2023-04-25T01:49:25;100393.06;;;7.05;63.40
64841;BME280;51307;52.162;7.560;2023-04-25T01:51:51;100389.38;;;7.06;63.20
64841;BME280;51307;52.162;7.560;2023-04-25T01:54:16;100390.84;;;6.90;62.87
64841;BME280;51307;52.162;7.560;2023-04-25T01:56:43;100400.19;;;7.04;62.87
64841;BME280;51307;52.162;7.560;2023-04-25T01:59:09;100402.66;;;7.16;62.42
64841;BME280;51307;52.162;7.560;2023-04-25T02:01:34;100400.19;;;7.04;62.83
64841;BME280;51307;52.162;7.560;2023-04-25T02:04:00;100402.66;;;7.16;62.30
64841;BME280;51307;52.162;7.560;2023-04-25T02:06:26;100396.53;;;7.05;62.55
64841;BME280;51307;52.162;7.560;2023-04-25T02:08:51;100401.31;;;7.02;62.40
64841;BME280;51307;52.162;7.560;2023-04-25T02:11:17;100397.69;;;6.93;62.61
64841;BME280;51307;52.162;7.560;2023-04-25T02:13:42;100400.63;;;6.90;61.94
64841;BME280;51307;52.162;7.560;2023-04-25T02:16:07;100396.22;;;6.81;62.45
64841;BME280;51307;52.162;7.560;2023-04-25T02:18:33;100403.19;;;6.82;62.64
64841;BME280;51307;52.162;7.560;2023-04-25T02:20:59;100398.41;;;6.95;62.65
64841;BME280;51307;52.162;7.560;2023-04-25T02:23:26;100406.53;;;6.84;63.09
64841;BME280;51307;52.162;7.560;2023-04-25T02:25:52;100406.94;;;6.89;63.06
64841;BME280;51307;52.162;7.560;2023-04-25T02:28:18;100401.97;;;6.66;63.36
64841;BME280;51307;52.162;7.560;2023-04-25T02:30:43;100400.72;;;7.08;62.70
64841;BME280;51307;52.162;7.560;2023-04-25T02:33:09;100405.94;;;6.90;63.23
64841;BME280;51307;52.162;7.560;2023-04-25T02:35:34;100404.31;;;6.79;63.33
64841;BME280;51307;52.162;7.560;2023-04-25T02:38:00;100408.56;;;6.62;63.76
64841;BME280;51307;52.162;7.560;2023-04-25T02:40:25;100407.63;;;6.91;62.95
64841;BME280;51307;52.162;7.560;2023-04-25T02:42:51;100417.09;;;7.13;62.36
64841;BME280;51307;52.162;7.560;2023-04-25T02:45:16;100422.09;;;6.79;63.39
64841;BME280;51307;52.162;7.560;2023-04-25T02:47:42;100423.66;;;6.71;63.33
64841;BME280;51307;52.162;7.560;2023-04-25T02:50:08;100423.59;;;6.91;62.50
64841;BME280;51307;52.162;7.560;2023-04-25T02:52:33;100422.53;;;6.64;63.31
64841;BME280;51307;52.162;7.560;2023-04-25T02:54:59;100431.88;;;6.88;62.91
64841;BME280;51307;52.162;7.560;2023-04-25T02:57:24;100422.81;;;6.71;63.19
64841;BME280;51307;52.162;7.560;2023-04-25T02:59:50;100424.28;;;6.93;62.45
64841;BME280;51307;52.162;7.560;2023-04-25T03:02:15;100435.25;;;6.80;62.86
64841;BME280;51307;52.162;7.560;2023-04-25T03:04:41;100431.22;;;6.66;62.61
64841;BME280;51307;52.162;7.560;2023-04-25T03:07:06;100436.59;;;6.27;63.87
64841;BME280;51307;52.162;7.560;2023-04-25T03:09:32;100437.44;;;6.18;64.54
64841;BME280;51307;52.162;7.560;2023-04-25T03:11:58;100445.38;;;6.37;64.36
64841;BME280;51307;52.162;7.560;2023-04-25T03:14:23;100450.25;;;6.71;63.00
64841;BME280;51307;52.162;7.560;2023-04-25T03:16:48;100451.13;;;6.43;63.37
64841;BME280;51307;52.162;7.560;2023-04-25T03:19:14;100450.25;;;6.71;63.05
64841;BME280;51307;52.162;7.560;2023-04-25T03:21:42;100454.75;;;6.61;62.77
64841;BME280;51307;52.162;7.560;2023-04-25T03:24:08;100449.56;;;6.60;62.90
64841;BME280;51307;52.162;7.560;2023-04-25T03:26:33;100453.94;;;6.31;64.06
64841;BME280;51307;52.162;7.560;2023-04-25T03:28:58;100449.97;;;6.55;63.04
64841;BME280;51307;52.162;7.560;2023-04-25T03:31:24;100462.16;;;6.48;63.20
64841;BME280;51307;52.162;7.560;2023-04-25T03:33:50;100466.50;;;6.49;62.74
64841;BME280;51307;52.162;7.560;2023-04-25T03:36:15;100470.56;;;6.23;63.37
64841;BME280;51307;52.162;7.560;2023-04-25T03:38:41;100465.41;;;6.51;62.49
64841;BME280;51307;52.162;7.560;2023-04-25T03:41:09;100463.56;;;6.52;62.31
64841;BME280;51307;52.162;7.560;2023-04-25T03:43:34;100466.22;;;6.52;62.39
64841;BME280;51307;52.162;7.560;2023-04-25T03:46:00;100478.44;;;6.35;62.46
64841;BME280;51307;52.162;7.560;2023-04-25T03:48:26;100475.28;;;6.79;61.30
64841;BME280;51307;52.162;7.560;2023-04-25T03:50:52;100479.38;;;6.44;61.74
64841;BME280;51307;52.162;7.560;2023-04-25T03:53:18;100471.28;;;6.35;62.27
64841;BME280;51307;52.162;7.560;2023-04-25T03:55:43;100478.41;;;6.25;62.34
64841;BME280;51307;52.162;7.560;2023-04-25T03:58:09;100485.94;;;6.49;62.20
64841;BME280;51307;52.162;7.560;2023-04-25T04:00:35;100482.75;;;6.55;61.61
64841;BME280;51307;52.162;7.560;2023-04-25T04:03:01;100484.56;;;6.45;61.96
64841;BME280;51307;52.162;7.560;2023-04-25T04:05:27;100488.47;;;6.51;61.69
64841;BME280;51307;52.162;7.560;2023-04-25T04:07:54;100491.28;;;6.39;62.02
64841;BME280;51307;52.162;7.560;2023-04-25T04:10:19;100492.38;;;6.37;61.55
64841;BME280;51307;52.162;7.560;2023-04-25T04:12:45;100493.25;;;6.47;61.61
64841;BME280;51307;52.162;7.560;2023-04-25T04:15:11;100500.06;;;6.40;61.62
64841;BME280;51307;52.162;7.560;2023-04-25T04:17:37;100499.22;;;6.20;61.82
64841;BME280;51307;52.162;7.560;2023-04-25T04:20:03;100506.38;;;6.29;62.20
64841;BME280;51307;52.162;7.560;2023-04-25T04:22:28;100500.78;;;6.22;62.07
64841;BME280;51307;52.162;7.560;2023-04-25T04:24:54;100502.88;;;6.19;62.18
64841;BME280;51307;52.162;7.560;2023-04-25T04:27:21;100508.63;;;6.63;61.05
64841;BME280;51307;52.162;7.560;2023-04-25T04:29:48;100509.31;;;6.26;61.74
64841;BME280;51307;52.162;7.560;2023-04-25T04:32:15;100511.41;;;6.42;61.24
64841;BME280;51307;52.162;7.560;2023-04-25T04:34:41;100523.31;;;6.38;61.47
64841;BME280;51307;52.162;7.560;2023-04-25T04:37:06;100513.22;;;6.32;61.45
64841;BME280;51307;52.162;7.560;2023-04-25T04:39:33;100517.28;;;6.65;61.17
64841;BME280;51307;52.162;7.560;2023-04-25T04:41:59;100524.44;;;6.35;61.44
64841;BME280;51307;52.162;7.560;2023-04-25T04:44:24;100525.38;;;6.73;61.06
64841;BME280;51307;52.162;7.560;2023-04-25T04:46:50;100522.19;;;6.40;61.40
64841;BME280;51307;52.162;7.560;2023-04-25T04:49:16;100520.38;;;6.41;61.40
64841;BME280;51307;52.162;7.560;2023-04-25T04:51:43;100528.88;;;6.05;62.31
64841;BME280;51307;52.162;7.560;2023-04-25T04:54:12;100529.19;;;6.61;61.01
64841;BME280;51307;52.162;7.560;2023-04-25T04:56:37;100533.09;;;6.28;61.72
64841;BME280;51307;52.162;7.560;2023-04-25T04:59:03;100540.78;;;6.31;61.60
64841;BME280;51307;52.162;7.560;2023-04-25T05:01:29;100545.00;;;6.53;61.35
64841;BME280;51307;52.162;7.560;2023-04-25T05:03:56;100547.22;;;6.48;60.89
64841;BME280;51307;52.162;7.560;2023-04-25T05:06:26;100550.44;;;6.51;60.93
64841;BME280;51307;52.162;7.560;2023-04-25T05:08:52;100550.84;;;6.17;61.46
64841;BME280;51307;52.162;7.560;2023-04-25T05:11:19;100559.13;;;6.63;60.40
64841;BME280;51307;52.162;7.560;2023-04-25T05:13:44;100562.47;;;6.26;60.88
64841;BME280;51307;52.162;7.560;2023-04-25T05:16:11;100560.09;;;6.23;60.63
64841;BME280;51307;52.162;7.560;2023-04-25T05:18:37;100557.44;;;6.52;60.07
64841;BME280;51307;52.162;7.560;2023-04-25T05:21:03;100573.09;;;6.26;60.78
64841;BME280;51307;52.162;7.560;2023-04-25T05:23:28;100570.16;;;6.58;59.77
64841;BME280;51307;52.162;7.560;2023-04-25T05:25:56;100567.94;;;6.54;59.70
64841;BME280;51307;52.162;7.560;2023-04-25T05:28:21;100569.47;;;6.37;59.82
64841;BME280;51307;52.162;7.560;2023-04-25T05:30:47;100566.66;;;6.38;59.43
64841;BME280;51307;52.162;7.560;2023-04-25T05:33:12;100567.78;;;6.26;59.90
64841;BME280;51307;52.162;7.560;2023-04-25T05:35:38;100577.84;;;6.32;59.54
64841;BME280;51307;52.162;7.560;2023-04-25T05:38:03;100579.13;;;6.67;58.40
64841;BME280;51307;52.162;7.560;2023-04-25T05:40:29;100577.13;;;6.20;59.53
64841;BME280;51307;52.162;7.560;2023-04-25T05:42:54;100581.63;;;6.39;58.89
64841;BME280;51307;52.162;7.560;2023-04-25T05:45:20;100579.41;;;6.54;58.41
64841;BME280;51307;52.162;7.560;2023-04-25T05:47:45;100579.84;;;6.50;58.76
64841;BME280;51307;52.162;7.560;2023-04-25T05:50:11;100585.69;;;6.44;58.59
64841;BME280;51307;52.162;7.560;2023-04-25T05:52:36;100588.88;;;6.18;58.42
64841;BME280;51307;52.162;7.560;2023-04-25T05:55:02;100594.91;;;6.39;57.72
64841;BME280;51307;52.162;7.560;2023-04-25T05:57:27;100591.09;;;6.13;58.00
64841;BME280;51307;52.162;7.560;2023-04-25T05:59:53;100598.91;;;6.04;57.73
64841;BME280;51307;52.162;7.560;2023-04-25T06:02:20;100601.09;;;6.60;57.04
64841;BME280;51307;52.162;7.560;2023-04-25T06:04:50;100598.44;;;6.50;56.56
64841;BME280;51307;52.162;7.560;2023-04-25T06:07:16;100602.63;;;6.62;56.77
64841;BME280;51307;52.162;7.560;2023-04-25T06:09:41;100609.63;;;6.44;56.94
64841;BME280;51307;52.162;7.560;2023-04-25T06:12:07;100606.81;;;6.45;56.14
64841;BME280;51307;52.162;7.560;2023-04-25T06:14:33;100607.78;;;6.44;55.96
64841;BME280;51307;52.162;7.560;2023-04-25T06:16:59;100612.78;;;6.18;57.11
64841;BME280;51307;52.162;7.560;2023-04-25T06:19:35;100612.94;;;6.26;56.27
64841;BME280;51307;52.162;7.560;2023-04-25T06:22:01;100616.69;;;6.14;56.25
64841;BME280;51307;52.162;7.560;2023-04-25T06:24:27;100615.59;;;6.26;56.23
64841;BME280;51307;52.162;7.560;2023-04-25T06:26:53;100619.00;;;6.57;55.39
64841;BME280;51307;52.162;7.560;2023-04-25T06:29:19;100622.06;;;6.53;54.26
64841;BME280;51307;52.162;7.560;2023-04-25T06:31:45;100625.84;;;6.50;54.42
64841;BME280;51307;52.162;7.560;2023-04-25T06:34:10;100626.38;;;6.34;55.25
64841;BME280;51307;52.162;7.560;2023-04-25T06:36:36;100630.16;;;6.32;54.02
64841;BME280;51307;52.162;7.560;2023-04-25T06:39:01;100632.25;;;6.28;53.57
64841;BME280;51307;52.162;7.560;2023-04-25T06:41:27;100632.00;;;6.51;53.32
64841;BME280;51307;52.162;7.560;2023-04-25T06:43:52;100634.41;;;6.54;53.82
64841;BME280;51307;52.162;7.560;2023-04-25T06:46:18;100632.44;;;6.66;53.44
64841;BME280;51307;52.162;7.560;2023-04-25T06:48:44;100638.03;;;6.72;53.23
64841;BME280;51307;52.162;7.560;2023-04-25T06:51:09;100626.28;;;6.46;52.65
64841;BME280;51307;52.162;7.560;2023-04-25T06:53:35;100639.66;;;6.34;53.04
64841;BME280;51307;52.162;7.560;2023-04-25T06:56:01;100648.94;;;6.69;51.75
64841;BME280;51307;52.162;7.560;2023-04-25T06:58:27;100642.66;;;6.70;51.33
64841;BME280;51307;52.162;7.560;2023-04-25T07:00:52;100644.06;;;6.65;51.05
64841;BME280;51307;52.162;7.560;2023-04-25T07:03:18;100642.81;;;6.79;51.81
64841;BME280;51307;52.162;7.560;2023-04-25T07:05:43;100649.81;;;6.89;50.91
64841;BME280;51307;52.162;7.560;2023-04-25T07:08:11;100653.97;;;6.72;50.98
64841;BME280;51307;52.162;7.560;2023-04-25T07:10:36;100655.69;;;6.83;51.38
64841;BME280;51307;52.162;7.560;2023-04-25T07:13:02;100655.25;;;6.68;51.79
64841;BME280;51307;52.162;7.560;2023-04-25T07:15:27;100669.25;;;6.90;51.90
64841;BME280;51307;52.162;7.560;2023-04-25T07:17:53;100661.03;;;7.03;50.66
64841;BME280;51307;52.162;7.560;2023-04-25T07:20:18;100659.78;;;7.07;50.95
64841;BME280;51307;52.162;7.560;2023-04-25T07:22:43;100671.22;;;6.88;50.61
64841;BME280;51307;52.162;7.560;2023-04-25T07:25:09;100661.31;;;7.00;50.42
64841;BME280;51307;52.162;7.560;2023-04-25T07:27:35;100672.78;;;6.90;50.36
64841;BME280;51307;52.162;7.560;2023-04-25T07:30:00;100677.00;;;7.32;50.22
64841;BME280;51307;52.162;7.560;2023-04-25T07:32:26;100673.50;;;7.02;51.23
64841;BME280;51307;52.162;7.560;2023-04-25T07:34:52;100693.22;;;7.19;51.24
64841;BME280;51307;52.162;7.560;2023-04-25T07:37:17;100668.31;;;7.20;50.72
64841;BME280;51307;52.162;7.560;2023-04-25T07:39:44;100675.34;;;7.12;50.44
64841;BME280;51307;52.162;7.560;2023-04-25T07:42:11;100683.16;;;7.03;50.14
64841;BME280;51307;52.162;7.560;2023-04-25T07:44:37;100683.88;;;7.05;50.24
64841;BME280;51307;52.162;7.560;2023-04-25T07:47:06;100682.81;;;6.67;50.84
64841;BME280;51307;52.162;7.560;2023-04-25T07:49:37;100688.97;;;6.68;50.99
64841;BME280;51307;52.162;7.560;2023-04-25T07:52:04;100696.31;;;6.95;49.48
64841;BME280;51307;52.162;7.560;2023-04-25T07:54:31;100695.34;;;6.96;49.92
64841;BME280;51307;52.162;7.560;2023-04-25T07:56:58;100693.38;;;7.18;50.61
64841;BME280;51307;52.162;7.560;2023-04-25T07:59:24;100698.13;;;7.44;49.85
64841;BME280;51307;52.162;7.560;2023-04-25T08:01:49;100693.50;;;7.26;50.18
64841;BME280;51307;52.162;7.560;2023-04-25T08:04:15;100706.94;;;7.34;47.83
64841;BME280;51307;52.162;7.560;2023-04-25T08:06:40;100702.59;;;6.94;46.94
64841;BME280;51307;52.162;7.560;2023-04-25T08:09:06;100715.22;;;7.21;48.44
64841;BME280;51307;52.162;7.560;2023-04-25T08:11:33;100701.50;;;7.06;48.31
64841;BME280;51307;52.162;7.560;2023-04-25T08:13:58;100715.34;;;7.39;48.21
64841;BME280;51307;52.162;7.560;2023-04-25T08:16:24;100706.41;;;7.40;48.60
64841;BME280;51307;52.162;7.560;2023-04-25T08:18:50;100711.69;;;7.70;47.33
64841;BME280;51307;52.162;7.560;2023-04-25T08:21:16;100718.38;;;7.74;46.80
64841;BME280;51307;52.162;7.560;2023-04-25T08:23:41;100727.81;;;7.68;47.15
64841;BME280;51307;52.162;7.560;2023-04-25T08:26:07;100721.09;;;7.45;47.32
64841;BME280;51307;52.162;7.560;2023-04-25T08:28:33;100712.63;;;7.79;47.71
64841;BME280;51307;52.162;7.560;2023-04-25T08:30:58;100722.41;;;7.88;46.56
64841;BME280;51307;52.162;7.560;2023-04-25T08:33:24;100725.78;;;7.90;45.03
64841;BME280;51307;52.162;7.560;2023-04-25T08:35:50;100727.66;;;7.70;45.03
64841;BME280;51307;52.162;7.560;2023-04-25T08:38:15;100727.53;;;7.62;44.73
64841;BME280;51307;52.162;7.560;2023-04-25T08:40:43;100736.53;;;7.51;45.64
64841;BME280;51307;52.162;7.560;2023-04-25T08:43:13;100741.59;;;8.01;44.52
64841;BME280;51307;52.162;7.560;2023-04-25T08:45:41;100745.84;;;7.74;45.61
64841;BME280;51307;52.162;7.560;2023-04-25T08:48:15;100742.94;;;7.78;45.76
64841;BME280;51307;52.162;7.560;2023-04-25T08:53:12;100754.69;;;7.75;42.70
64841;BME280;51307;52.162;7.560;2023-04-25T08:55:45;100768.28;;;7.82;44.50
64841;BME280;51307;52.162;7.560;2023-04-25T08:58:12;100769.69;;;7.76;44.23
64841;BME280;51307;52.162;7.560;2023-04-25T09:00:38;100765.16;;;8.06;43.74
64841;BME280;51307;52.162;7.560;2023-04-25T09:03:05;100781.31;;;7.85;39.63
64841;BME280;51307;52.162;7.560;2023-04-25T09:05:33;100763.19;;;7.98;38.14
64841;BME280;51307;52.162;7.560;2023-04-25T09:07:58;100772.41;;;8.14;38.67
64841;BME280;51307;52.162;7.560;2023-04-25T09:10:26;100779.72;;;8.12;40.26
64841;BME280;51307;52.162;7.560;2023-04-25T09:13:08;100793.78;;;7.94;38.95
64841;BME280;51307;52.162;7.560;2023-04-25T09:15:53;100782.03;;;7.77;39.78
64841;BME280;51307;52.162;7.560;2023-04-25T09:20:48;100794.09;;;7.71;39.76
64841;BME280;51307;52.162;7.560;2023-04-25T09:23:14;100780.53;;;8.12;39.54
64841;BME280;51307;52.162;7.560;2023-04-25T09:25:40;100782.66;;;8.56;38.83
64841;BME280;51307;52.162;7.560;2023-04-25T09:28:06;100796.03;;;8.36;39.51
64841;BME280;51307;52.162;7.560;2023-04-25T09:30:34;100789.41;;;8.50;39.87
64841;BME280;51307;52.162;7.560;2023-04-25T09:33:08;100784.94;;;8.69;40.00
64841;BME280;51307;52.162;7.560;2023-04-25T09:35:38;100792.50;;;8.46;39.48
64841;BME280;51307;52.162;7.560;2023-04-25T09:38:09;100787.78;;;8.39;39.86
64841;BME280;51307;52.162;7.560;2023-04-25T09:40:42;100799.47;;;8.56;38.73
64841;BME280;51307;52.162;7.560;2023-04-25T09:43:22;100801.56;;;8.63;39.52
64841;BME280;51307;52.162;7.560;2023-04-25T09:45:49;100801.16;;;8.57;38.85
64841;BME280;51307;52.162;7.560;2023-04-25T09:48:24;100788.91;;;8.37;38.08
64841;BME280;51307;52.162;7.560;2023-04-25T09:51:12;100805.47;;;8.68;38.96
64841;BME280;51307;52.162;7.560;2023-04-25T09:53:41;100806.19;;;8.61;39.37
64841;BME280;51307;52.162;7.560;2023-04-25T09:56:10;100809.41;;;8.64;39.99
64841;BME280;51307;52.162;7.560;2023-04-25T09:58:37;100809.63;;;8.43;40.23
64841;BME280;51307;52.162;7.560;2023-04-25T10:01:05;100819.31;;;7.97;40.57
64841;BME280;51307;52.162;7.560;2023-04-25T10:03:33;100835.00;;;7.90;40.86
64841;BME280;51307;52.162;7.560;2023-04-25T10:06:08;100828.16;;;7.87;41.39
64841;BME280;51307;52.162;7.560;2023-04-25T10:08:36;100851.69;;;7.92;41.92
64841;BME280;51307;52.162;7.560;2023-04-25T10:11:03;100842.88;;;7.91;41.31
64841;BME280;51307;52.162;7.560;2023-04-25T10:13:30;100841.19;;;7.71;42.43
64841;BME280;51307;52.162;7.560;2023-04-25T10:16:00;100843.97;;;7.89;43.24
64841;BME280;51307;52.162;7.560;2023-04-25T10:18:28;100853.09;;;7.86;43.55
64841;BME280;51307;52.162;7.560;2023-04-25T10:20:56;100856.75;;;7.95;43.49
64841;BME280;51307;52.162;7.560;2023-04-25T10:23:23;100855.22;;;7.53;43.64
64841;BME280;51307;52.162;7.560;2023-04-25T10:25:52;100859.78;;;7.32;43.07
64841;BME280;51307;52.162;7.560;2023-04-25T10:28:20;100860.53;;;7.53;43.42
64841;BME280;51307;52.162;7.560;2023-04-25T10:31:03;100855.19;;;7.73;43.47
64841;BME280;51307;52.162;7.560;2023-04-25T10:33:32;100858.28;;;7.88;43.11
64841;BME280;51307;52.162;7.560;2023-04-25T10:36:15;100861.63;;;7.80;42.11
64841;BME280;51307;52.162;7.560;2023-04-25T10:38:43;100866.28;;;7.88;41.98
64841;BME280;51307;52.162;7.560;2023-04-25T10:41:11;100869.09;;;7.77;42.94
64841;BME280;51307;52.162;7.560;2023-04-25T10:43:40;100868.81;;;7.99;43.06
64841;BME280;51307;52.162;7.560;2023-04-25T10:46:25;100875.66;;;7.82;42.73
64841;BME280;51307;52.162;7.560;2023-04-25T10:48:56;100875.25;;;7.87;42.85
64841;BME280;51307;52.162;7.560;2023-04-25T10:51:22;100870.59;;;7.99;43.54
64841;BME280;51307;52.162;7.560;2023-04-25T10:56:27;100871.47;;;7.80;44.92
64841;BME280;51307;52.162;7.560;2023-04-25T10:59:14;100877.91;;;7.67;44.95
64841;BME280;51307;52.162;7.560;2023-04-25T11:04:29;100878.06;;;7.75;44.54
64841;BME280;51307;52.162;7.560;2023-04-25T11:07:16;100889.97;;;7.81;44.15
64841;BME280;51307;52.162;7.560;2023-04-25T11:09:48;100870.06;;;7.75;43.51
64841;BME280;51307;52.162;7.560;2023-04-25T11:12:14;100876.66;;;7.81;42.59
64841;BME280;51307;52.162;7.560;2023-04-25T11:14:41;100883.53;;;7.64;43.28
64841;BME280;51307;52.162;7.560;2023-04-25T11:17:07;100875.66;;;7.92;43.52
64841;BME280;51307;52.162;7.560;2023-04-25T11:19:32;100870.19;;;7.54;43.27
64841;BME280;51307;52.162;7.560;2023-04-25T11:21:59;100878.31;;;8.12;43.20
64841;BME280;51307;52.162;7.560;2023-04-25T11:24:33;100867.53;;;7.94;42.48
64841;BME280;51307;52.162;7.560;2023-04-25T11:27:04;100871.03;;;7.94;41.42
64841;BME280;51307;52.162;7.560;2023-04-25T11:29:33;100871.03;;;8.04;41.88
64841;BME280;51307;52.162;7.560;2023-04-25T11:31:59;100867.25;;;8.06;41.50
64841;BME280;51307;52.162;7.560;2023-04-25T11:34:27;100874.00;;;8.58;40.90
64841;BME280;51307;52.162;7.560;2023-04-25T11:36:56;100867.66;;;8.69;41.27
64841;BME280;51307;52.162;7.560;2023-04-25T11:39:23;100868.31;;;8.33;39.95
64841;BME280;51307;52.162;7.560;2023-04-25T11:41:50;100864.97;;;8.21;39.36
64841;BME280;51307;52.162;7.560;2023-04-25T11:44:17;100887.06;;;8.51;39.10
64841;BME280;51307;52.162;7.560;2023-04-25T11:46:44;100863.22;;;8.50;39.91
64841;BME280;51307;52.162;7.560;2023-04-25T11:49:09;100871.28;;;8.78;39.02
64841;BME280;51307;52.162;7.560;2023-04-25T11:51:39;100866.47;;;8.91;40.05
64841;BME280;51307;52.162;7.560;2023-04-25T11:54:05;100866.16;;;8.94;39.99
64841;BME280;51307;52.162;7.560;2023-04-25T11:56:31;100870.06;;;8.62;39.82
64841;BME280;51307;52.162;7.560;2023-04-25T12:01:35;100864.69;;;9.09;40.94
64841;BME280;51307;52.162;7.560;2023-04-25T12:04:15;100869.25;;;9.27;40.93
64841;BME280;51307;52.162;7.560;2023-04-25T12:06:42;100867.31;;;9.37;39.59
64841;BME280;51307;52.162;7.560;2023-04-25T12:09:12;100861.25;;;9.45;40.03
64841;BME280;51307;52.162;7.560;2023-04-25T12:11:47;100880.72;;;9.09;39.15
64841;BME280;51307;52.162;7.560;2023-04-25T12:14:22;100870.63;;;9.31;38.62
64841;BME280;51307;52.162;7.560;2023-04-25T12:16:49;100887.91;;;8.99;39.71
64841;BME280;51307;52.162;7.560;2023-04-25T12:19:17;100881.22;;;9.23;40.09
64841;BME280;51307;52.162;7.560;2023-04-25T12:21:44;100874.44;;;9.29;42.34
64841;BME280;51307;52.162;7.560;2023-04-25T12:24:15;100877.44;;;9.16;42.83
64841;BME280;51307;52.162;7.560;2023-04-25T12:26:53;100871.91;;;9.27;42.48
64841;BME280;51307;52.162;7.560;2023-04-25T12:29:26;100875.31;;;9.19;43.35
64841;BME280;51307;52.162;7.560;2023-04-25T12:31:54;100888.75;;;9.28;42.69
64841;BME280;51307;52.162;7.560;2023-04-25T12:34:21;100886.72;;;9.57;42.33
64841;BME280;51307;52.162;7.560;2023-04-25T12:36:47;100884.28;;;9.46;43.11
64841;BME280;51307;52.162;7.560;2023-04-25T12:39:21;100900.56;;;9.25;42.87
64841;BME280;51307;52.162;7.560;2023-04-25T12:41:49;100907.41;;;9.09;42.25
64841;BME280;51307;52.162;7.560;2023-04-25T12:44:14;100906.81;;;9.16;42.25
64841;BME280;51307;52.162;7.560;2023-04-25T12:46:40;100897.03;;;9.52;42.95
64841;BME280;51307;52.162;7.560;2023-04-25T12:49:06;100906.47;;;9.29;41.90
64841;BME280;51307;52.162;7.560;2023-04-25T12:51:35;100902.78;;;9.75;41.59
64841;BME280;51307;52.162;7.560;2023-04-25T12:54:02;100929.38;;;9.31;44.50
64841;BME280;51307;52.162;7.560;2023-04-25T12:56:29;100917.59;;;8.76;45.38
64841;BME280;51307;52.162;7.560;2023-04-25T12:58:55;100930.94;;;8.76;45.83
64841;BME280;51307;52.162;7.560;2023-04-25T13:01:21;100959.13;;;8.32;47.50
64841;BME280;51307;52.162;7.560;2023-04-25T13:03:46;100949.13;;;8.04;49.69
64841;BME280;51307;52.162;7.560;2023-04-25T13:06:14;100945.78;;;8.22;50.25
64841;BME280;51307;52.162;7.560;2023-04-25T13:08:39;100949.56;;;8.29;50.05
64841;BME280;51307;52.162;7.560;2023-04-25T13:11:07;100952.78;;;7.94;52.00
64841;BME280;51307;52.162;7.560;2023-04-25T13:13:32;100953.63;;;8.14;51.51